Time;durP1;ratioP1;P1;durP2;ratioP2;P2;SDS_P1;SDS_P2;PMS_P1;PMS_P2;Temp;Humidity;BMP_temperature;BMP_pressure;BME280_temperature;BME280_humidity;BME280_pressure;Samples;Min_cycle;Max_cycle;Signal;HPM_P1;HPM_P2
2021/12/23 00:02:12;;;;;;;20.48;11.20;;;;;;;-4.75;75.68;101137.66;4751929;30;20519;-67
2021/12/23 00:05:16;;;;;;;16.85;11.32;;;;;;;-4.78;75.73;101155.44;4751943;30;20051;-67
2021/12/23 00:08:19;;;;;;;16.98;10.75;;;;;;;-4.75;75.63;101145.31;4752024;30;20059;-67
2021/12/23 00:11:22;;;;;;;18.60;11.75;;;;;;;-4.74;75.33;101136.81;4751818;30;20523;-67
2021/12/23 00:14:25;;;;;;;17.77;11.63;;;;;;;-4.82;75.30;101138.34;4751834;30;20432;-67
2021/12/23 00:17:55;;;;;;;;;;;;;;;-4.82;75.88;101128.13;4752064;30;20116;-67
2021/12/23 00:24:20;;;;;;;20.70;11.90;;;;;;;-4.86;76.17;101109.34;4769337;30;20051;-67
2021/12/23 00:27:24;;;;;;;18.85;12.50;;;;;;;-4.85;75.49;101106.00;4769679;30;20082;-67
2021/12/23 00:30:27;;;;;;;17.88;12.63;;;;;;;-4.79;75.64;101098.44;4769226;30;20059;-67
2021/12/23 00:33:31;;;;;;;18.42;12.43;;;;;;;-4.78;75.60;101099.31;4769121;30;20050;-67
2021/12/23 00:36:35;;;;;;;19.38;11.85;;;;;;;-4.86;75.76;101095.75;4769313;30;20105;-67
2021/12/23 00:39:38;;;;;;;18.40;11.50;;;;;;;-4.90;76.66;101089.72;4769194;30;20426;-67
2021/12/23 00:42:42;;;;;;;19.52;12.68;;;;;;;-4.84;75.80;101083.91;4769199;30;20058;-67
2021/12/23 00:45:45;;;;;;;18.40;11.52;;;;;;;-4.79;76.40;101080.59;4769093;30;20070;-67
2021/12/23 00:48:48;;;;;;;19.63;11.70;;;;;;;-4.70;75.76;101087.56;4751420;30;20163;-67
2021/12/23 00:51:53;;;;;;;;;;;;;;;-4.77;75.31;101080.63;4751621;30;20055;-67
2021/12/23 00:54:57;;;;;;;17.47;10.70;;;;;;;-4.76;75.72;101072.13;4751340;30;19988;-67
2021/12/23 00:58:00;;;;;;;20.45;12.23;;;;;;;-4.69;75.12;101074.84;4751306;30;20464;-67
2021/12/23 01:01:05;;;;;;;16.50;11.75;;;;;;;-4.57;75.11;101068.22;4755153;30;20119;-67
2021/12/23 01:04:08;;;;;;;20.02;12.85;;;;;;;-4.51;75.03;101066.66;4768857;30;20107;-68
2021/12/23 01:07:11;;;;;;;17.77;12.00;;;;;;;-4.70;75.51;101050.13;4768715;30;20494;-67
2021/12/23 01:10:16;;;;;;;18.15;12.15;;;;;;;-4.57;75.38;101051.22;4770140;30;20131;-67
2021/12/23 01:13:20;;;;;;;19.02;11.93;;;;;;;-4.69;76.07;101043.34;4772501;30;20063;-67
2021/12/23 01:16:47;;;;;;;19.83;12.90;;;;;;;-4.79;75.66;101051.66;4772270;30;20423;-67
2021/12/23 01:19:52;;;;;;;16.77;11.43;;;;;;;-4.76;75.90;101055.13;4772536;30;20059;-67
2021/12/23 01:23:03;;;;;;;19.70;12.95;;;;;;;-4.84;76.10;101043.09;4772609;30;20142;-67
2021/12/23 01:26:06;;;;;;;20.73;12.95;;;;;;;-4.86;76.60;101047.28;4772372;30;20513;-67
2021/12/23 01:29:10;;;;;;;86.57;48.17;;;;;;;-4.93;76.63;101043.75;4772309;30;20071;-67
2021/12/23 01:32:13;;;;;;;31.27;19.00;;;;;;;-4.81;76.24;101044.00;4771802;30;20419;-67
2021/12/23 01:35:17;;;;;;;21.23;13.55;;;;;;;-4.79;76.11;101031.25;4772201;30;20058;-67
2021/12/23 01:38:20;;;;;;;21.73;13.55;;;;;;;-4.69;75.76;101028.91;4772133;30;20101;-67
2021/12/23 01:41:25;;;;;;;16.70;11.85;;;;;;;-4.66;76.09;101040.84;4768043;30;20105;-67
2021/12/23 01:44:28;;;;;;;18.23;12.50;;;;;;;-4.60;75.06;101033.31;4771858;30;20169;-67
2021/12/23 01:47:32;;;;;;;19.35;12.88;;;;;;;-4.59;75.38;101029.94;4781501;30;20058;-67
2021/12/23 01:50:37;;;;;;;19.30;12.18;;;;;;;-4.77;75.75;101024.50;4771843;30;20047;-67
2021/12/23 01:53:41;;;;;;;18.70;11.65;;;;;;;-4.86;76.03;101009.88;4772104;30;20518;-67
2021/12/23 01:56:44;;;;;;;22.67;12.90;;;;;;;-5.01;76.40;100997.72;4771784;30;20060;-67
2021/12/23 01:59:48;;;;;;;22.50;13.15;;;;;;;-5.13;76.30;100981.34;4771669;30;20050;-67
2021/12/23 02:02:54;;;;;;;19.00;12.35;;;;;;;-5.21;77.05;100983.72;4780848;30;20055;-67
2021/12/23 02:05:57;;;;;;;21.30;12.87;;;;;;;-5.08;77.05;100982.25;4771506;30;20155;-67
2021/12/23 02:09:00;;;;;;;19.38;13.48;;;;;;;-5.15;75.84;100984.69;4771605;30;20109;-67
2021/12/23 02:12:04;;;;;;;;;;;;;;;-5.20;76.40;100982.88;4771974;30;20051;-67
2021/12/23 02:15:08;;;;;;;20.52;13.30;;;;;;;-5.22;76.37;100985.41;4771449;30;20090;-67
2021/12/23 02:18:11;;;;;;;19.85;12.68;;;;;;;-5.23;76.67;100982.84;4771665;30;20050;-67
2021/12/23 02:21:14;;;;;;;26.05;15.63;;;;;;;-5.20;76.83;100977.78;4770282;30;20078;-67
2021/12/23 02:24:17;;;;;;;20.85;13.52;;;;;;;-5.09;76.16;100976.31;4771347;30;20051;-67
2021/12/23 02:27:21;;;;;;;21.38;13.88;;;;;;;-5.08;75.18;100980.56;4771363;30;20078;-67
2021/12/23 02:30:27;;;;;;;20.83;13.10;;;;;;;-5.06;75.29;100980.63;4771179;30;20319;-67
2021/12/23 02:33:30;;;;;;;21.05;13.90;;;;;;;-5.04;75.36;100984.91;4770867;30;20125;-67
2021/12/23 02:36:34;;;;;;;18.58;12.35;;;;;;;-5.03;74.98;100976.44;4780792;30;20138;-67
2021/12/23 02:39:40;;;;;;;20.33;13.13;;;;;;;-5.22;75.78;100974.38;4771094;30;20056;-67
2021/12/23 02:42:43;;;;;;;19.43;12.87;;;;;;;-5.08;75.46;100966.97;4770768;30;20127;-67
2021/12/23 02:45:49;;;;;;;18.95;12.38;;;;;;;-5.04;75.04;100954.31;4771013;30;20059;-67
2021/12/23 02:48:52;;;;;;;19.13;12.27;;;;;;;-5.05;75.04;100950.03;4771165;30;20073;-67
2021/12/23 02:51:55;;;;;;;23.70;13.45;;;;;;;-5.17;75.72;100947.25;4770904;30;20470;-67
2021/12/23 02:54:59;;;;;;;;;;;;;;;-5.04;75.25;100941.56;4771643;30;20478;-67
2021/12/23 02:58:02;;;;;;;18.05;12.30;;;;;;;-5.22;75.91;100949.72;4770908;30;19924;-67
2021/12/23 03:01:08;;;;;;;17.77;11.63;;;;;;;-5.19;76.22;100943.84;4770851;30;20508;-67
2021/12/23 03:04:11;;;;;;;17.75;13.00;;;;;;;-5.16;76.17;100941.34;4754305;30;20055;-67
2021/12/23 03:07:15;;;;;;;;;;;;;;;-5.21;75.73;100938.69;4753159;30;20114;-67
2021/12/23 03:10:22;;;;;;;17.10;12.30;;;;;;;-5.13;76.44;100938.84;4752974;30;19929;-67
2021/12/23 03:13:26;;;;;;;18.70;12.80;;;;;;;-5.06;75.59;100930.47;4752698;30;20055;-67
2021/12/23 03:16:31;;;;;;;19.00;12.23;;;;;;;-4.96;75.62;100929.78;4752753;30;20050;-67
2021/12/23 03:19:34;;;;;;;24.50;13.47;;;;;;;-4.91;75.50;100915.44;4752717;30;20047;-67
2021/12/23 03:22:38;;;;;;;;;;;;;;;-5.02;75.37;100916.94;4753195;30;20070;-67
2021/12/23 03:25:44;;;;;;;19.17;12.20;;;;;;;-4.85;74.94;100924.00;4757134;30;19928;-68
2021/12/23 03:28:47;;;;;;;17.17;12.65;;;;;;;-4.86;75.53;100918.06;4770478;30;20202;-67
2021/12/23 03:31:51;;;;;;;21.38;13.45;;;;;;;-4.88;75.60;100904.44;4769463;30;20423;-67
2021/12/23 03:34:54;;;;;;;17.35;12.13;;;;;;;-4.78;75.13;100898.66;4770361;30;20066;-67
2021/12/23 03:37:58;;;;;;;23.40;13.55;;;;;;;-4.82;75.38;100894.31;4770293;30;20106;-67
2021/12/23 03:41:02;;;;;;;18.80;12.75;;;;;;;-4.86;75.51;100884.03;4770000;30;20119;-67
2021/12/23 03:44:06;;;;;;;19.33;11.90;;;;;;;-4.84;76.31;100867.06;4769165;30;20059;-67
2021/12/23 03:47:10;;;;;;;20.90;12.65;;;;;;;-4.89;75.99;100877.19;4769227;30;20101;-67
2021/12/23 03:50:13;;;;;;;;;;;;;;;-4.98;77.06;100874.47;4770342;30;20143;-67
2021/12/23 03:53:16;;;;;;;20.08;13.38;;;;;;;-4.92;76.31;100882.25;4769610;30;19977;-67
2021/12/23 03:56:20;;;;;;;20.33;12.68;;;;;;;-4.93;76.21;100875.44;4769589;30;20418;-67
2021/12/23 03:59:23;;;;;;;18.90;11.95;;;;;;;-4.98;76.49;100877.91;4440171;30;10000470;-67
2021/12/23 04:02:27;;;;;;;21.20;13.77;;;;;;;-5.03;76.60;100871.88;4784471;30;20193;-67
2021/12/23 04:05:30;;;;;;;18.35;11.73;;;;;;;-4.91;76.47;100871.22;4785180;30;20528;-67
2021/12/23 04:08:33;;;;;;;21.90;14.77;;;;;;;-4.79;76.14;100852.69;4784704;30;20054;-67
2021/12/23 04:11:37;;;;;;;18.38;12.77;;;;;;;-4.84;75.66;100844.13;4783906;30;20617;-67
2021/12/23 04:14:40;;;;;;;19.00;12.23;;;;;;;-4.89;76.32;100836.38;4784395;30;20103;-67
2021/12/23 04:17:44;;;;;;;20.85;13.35;;;;;;;-4.74;76.22;100835.78;4784351;30;20054;-67
2021/12/23 04:20:53;;;;;;;24.67;13.35;;;;;;;-4.87;76.63;100813.47;4784071;30;20049;-67
2021/12/23 04:23:56;;;;;;;20.40;12.13;;;;;;;-4.71;76.40;100835.81;4782796;30;20142;-67
2021/12/23 04:26:59;;;;;;;19.00;13.68;;;;;;;-4.88;76.91;100832.13;4784084;30;20065;-67
2021/12/23 04:30:05;;;;;;;19.23;13.75;;;;;;;-4.87;76.53;100831.31;4783946;30;20525;-67
2021/12/23 04:33:10;;;;;;;19.85;12.60;;;;;;;-4.76;76.12;100822.13;4784260;30;20054;-67
2021/12/23 04:36:12;;;;;;;;;;;;;;;-4.69;76.10;100814.59;4784206;30;20154;-67
2021/12/23 04:39:16;;;;;;;26.40;13.68;;;;;;;-4.77;76.40;100811.06;4784000;30;19928;-67
2021/12/23 04:42:20;;;;;;;22.45;13.63;;;;;;;-4.71;76.71;100810.31;4784142;30;20177;-67
2021/12/23 04:45:23;;;;;;;21.50;13.82;;;;;;;-4.76;76.44;100802.56;4782405;29;20058;-67
2021/12/23 04:48:27;;;;;;;24.05;12.27;;;;;;;-4.71;76.25;100798.41;4783611;30;20472;-67
2021/12/23 04:51:30;;;;;;;19.30;12.35;;;;;;;-4.72;76.53;100794.16;4783715;30;20422;-67
2021/12/23 04:54:33;;;;;;;17.00;12.20;;;;;;;-4.64;76.48;100807.00;4783659;30;20108;-67
2021/12/23 04:57:37;;;;;;;21.42;12.88;;;;;;;-4.81;77.22;100798.25;4783994;30;20120;-67
2021/12/23 05:00:42;;;;;;;19.52;12.48;;;;;;;-4.72;76.25;100798.41;4770598;30;20505;-67
2021/12/23 05:03:47;;;;;;;19.92;12.93;;;;;;;-4.65;76.57;100784.88;4765132;30;20055;-67
2021/12/23 05:06:50;;;;;;;20.45;13.10;;;;;;;-4.66;76.40;100793.34;4774508;30;20119;-67
2021/12/23 05:09:54;;;;;;;19.25;12.38;;;;;;;-4.59;76.46;100784.97;4765559;30;20421;-67
2021/12/23 05:12:58;;;;;;;20.42;13.55;;;;;;;-4.55;76.41;100773.09;4765899;30;20185;-67
2021/12/23 05:16:01;;;;;;;20.50;14.98;;;;;;;-4.49;76.26;100774.03;4765212;30;20054;-67
2021/12/23 05:19:05;;;;;;;20.65;14.77;;;;;;;-4.67;76.13;100779.72;4765216;30;20112;-67
2021/12/23 05:22:08;;;;;;;19.98;13.23;;;;;;;-4.67;76.54;100787.38;4765652;30;20051;-67
2021/12/23 05:25:11;;;;;;;;;;;;;;;-4.67;76.98;100789.94;4766267;30;20125;-67
2021/12/23 05:28:14;;;;;;;20.58;13.13;;;;;;;-4.54;76.26;100778.22;4761398;30;19924;-67
2021/12/23 05:31:18;;;;;;;21.55;14.95;;;;;;;-4.45;76.50;100775.78;4761259;30;20422;-68
2021/12/23 05:34:21;;;;;;;26.90;14.50;;;;;;;-4.31;76.16;100754.66;4761590;30;20051;-67
2021/12/23 05:37:24;;;;;;;19.85;13.07;;;;;;;-4.22;75.89;100754.78;4761873;30;20136;-67
2021/12/23 05:40:29;;;;;;;;;;;;;;;-4.38;76.85;100755.44;4761146;30;20056;-67
2021/12/23 05:43:32;;;;;;;20.55;13.95;;;;;;;-4.48;76.88;100757.03;4760939;30;19928;-67
2021/12/23 05:46:35;;;;;;;;;;;;;;;-4.48;77.45;100750.22;4762223;30;20055;-67
2021/12/23 05:49:38;;;;;;;23.08;12.70;;;;;;;-4.45;77.32;100751.94;4416226;30;10000675;-67
2021/12/23 05:52:42;;;;;;;23.10;14.07;;;;;;;-4.47;76.82;100739.19;4744305;30;20607;-67
2021/12/23 05:55:45;;;;;;;20.95;13.23;;;;;;;-4.50;77.38;100736.59;4763150;30;20051;-67
2021/12/23 05:58:48;;;;;;;19.13;12.75;;;;;;;-4.48;77.31;100729.78;4767051;30;20522;-67
2021/12/23 06:01:51;;;;;;;22.42;13.68;;;;;;;-4.48;77.46;100734.91;4766899;30;20060;-67
2021/12/23 06:04:55;;;;;;;21.58;13.52;;;;;;;-4.41;76.97;100727.31;4767144;30;20100;-67
2021/12/23 06:07:58;;;;;;;22.52;14.32;;;;;;;-4.52;77.15;100725.50;4774935;30;20094;-67
2021/12/23 06:11:01;;;;;;;25.67;15.50;;;;;;;-4.65;77.29;100723.63;4786035;30;20180;-67
2021/12/23 06:14:05;;;;;;;;;;;;;;;-4.51;77.05;100732.31;4785277;30;20104;-67
2021/12/23 06:17:08;;;;;;;21.88;14.45;;;;;;;-4.61;76.77;100734.75;4784462;30;20357;-67
2021/12/23 06:20:12;;;;;;;21.00;13.85;;;;;;;-4.60;77.06;100726.25;4784395;30;20107;-67
2021/12/23 06:23:16;;;;;;;21.67;15.02;;;;;;;-4.65;77.21;100721.09;4784693;30;20583;-67
2021/12/23 06:26:20;;;;;;;23.73;15.55;;;;;;;-4.70;77.63;100702.31;4775613;30;20056;-67
2021/12/23 06:29:23;;;;;;;22.90;13.90;;;;;;;-4.67;77.62;100700.66;4784274;30;20054;-67
2021/12/23 06:32:27;;;;;;;21.52;13.80;;;;;;;-4.68;77.64;100693.84;4784417;30;20551;-68
2021/12/23 06:35:32;;;;;;;20.52;14.52;;;;;;;-4.62;77.80;100685.41;4783124;29;20050;-67
2021/12/23 06:38:35;;;;;;;21.48;12.93;;;;;;;-4.75;77.51;100686.94;4766251;30;20058;-68
2021/12/23 06:41:45;;;;;;;22.05;14.65;;;;;;;-4.71;77.36;100673.38;4767502;30;20047;-68
2021/12/23 06:45:40;;;;;;;18.35;12.88;;;;;;;-4.67;76.76;100677.69;4778581;30;20108;-67
2021/12/23 06:48:43;;;;;;;21.67;15.25;;;;;;;-4.70;77.09;100684.44;4783982;30;20574;-67
2021/12/23 06:51:47;;;;;;;22.38;13.95;;;;;;;-4.79;76.83;100686.88;4768827;30;20072;-67
2021/12/23 06:54:53;;;;;;;24.00;14.18;;;;;;;-4.71;76.88;100687.84;4749066;30;20051;-67
2021/12/23 06:57:57;;;;;;;25.15;15.75;;;;;;;-4.66;76.96;100696.38;4748386;30;20109;-68
2021/12/23 07:01:27;;;;;;;22.35;14.25;;;;;;;-4.56;76.36;100688.03;4764538;30;20469;-68
2021/12/23 07:04:33;;;;;;;27.60;16.00;;;;;;;-4.52;76.14;100689.78;4758207;30;20425;-67
2021/12/23 07:07:42;;;;;;;24.73;15.57;;;;;;;-4.61;76.35;100659.03;4766770;30;20125;-68
2021/12/23 07:10:45;;;;;;;22.60;14.07;;;;;;;-4.72;76.38;100666.59;4768498;30;20054;-67
2021/12/23 07:13:49;;;;;;;19.92;14.10;;;;;;;-4.65;76.54;100671.75;4768023;30;20058;-67
2021/12/23 07:16:53;;;;;;;21.05;14.10;;;;;;;-4.67;77.14;100669.19;4769242;30;20109;-67
2021/12/23 07:19:56;;;;;;;19.73;13.13;;;;;;;-4.56;76.83;100670.19;4768688;30;20062;-67
2021/12/23 07:23:00;;;;;;;24.38;13.90;;;;;;;-4.56;76.80;100682.94;4748711;30;20524;-67
2021/12/23 07:26:03;;;;;;;22.27;14.18;;;;;;;-4.45;76.45;100672.84;4747025;30;20055;-67
2021/12/23 07:29:07;;;;;;;19.48;12.68;;;;;;;-4.48;76.23;100676.19;4746384;30;20116;-67
2021/12/23 07:32:10;;;;;;;19.77;13.10;;;;;;;-4.45;76.30;100676.25;4745921;30;20055;-67
2021/12/23 07:35:13;;;;;;;;;;;;;;;-4.44;77.09;100670.28;4745895;30;20047;-67
2021/12/23 07:38:17;;;;;;;21.17;14.63;;;;;;;-4.56;76.85;100667.63;4745818;30;20445;-67
2021/12/23 07:41:20;;;;;;;22.55;14.27;;;;;;;-4.50;77.14;100664.25;4755838;30;20099;-67
2021/12/23 07:44:23;;;;;;;22.35;14.73;;;;;;;-4.40;76.73;100662.66;4783793;30;20046;-67
2021/12/23 07:47:27;;;;;;;26.02;15.63;;;;;;;-4.37;77.14;100663.56;4783573;30;20126;-67
2021/12/23 07:50:30;;;;;;;20.15;13.88;;;;;;;-4.32;76.99;100673.81;4782796;30;20525;-68
2021/12/23 07:53:53;;;;;;;21.13;14.77;;;;;;;-4.22;76.53;100667.97;4783917;30;20054;-67
2021/12/23 07:56:59;;;;;;;25.92;14.23;;;;;;;-4.35;76.66;100676.34;4785248;30;20055;-67
2021/12/23 08:00:04;;;;;;;19.38;13.73;;;;;;;-4.43;77.89;100678.81;4751215;30;20136;-67
2021/12/23 08:03:17;;;;;;;21.65;14.05;;;;;;;-4.33;77.54;100674.69;4754059;30;20095;-67
2021/12/23 08:06:20;;;;;;;21.75;14.48;;;;;;;-4.23;77.48;100656.06;4769016;30;20054;-67
2021/12/23 08:09:25;;;;;;;22.17;15.45;;;;;;;-4.19;77.21;100647.56;4769482;30;20093;-67
2021/12/23 08:12:28;;;;;;;22.42;15.73;;;;;;;-4.14;77.42;100639.97;4768878;30;20412;-65
2021/12/23 08:15:32;;;;;;;65.60;35.60;;;;;;;-4.06;77.18;100633.22;4768010;30;20112;-65
2021/12/23 08:18:35;;;;;;;49.13;28.90;;;;;;;-4.07;76.76;100636.63;4767179;30;20058;-63
2021/12/23 08:21:38;;;;;;;32.30;20.15;;;;;;;-4.03;76.65;100641.75;4769362;30;20104;-64
2021/12/23 08:24:41;;;;;;;25.83;17.08;;;;;;;-3.95;76.71;100628.22;4768801;30;20576;-63
2021/12/23 08:27:45;;;;;;;;;;;;;;;-3.95;77.10;100629.09;4768571;30;20421;-63
2021/12/23 08:30:48;;;;;;;34.53;18.30;;;;;;;-3.77;76.20;100618.13;4768500;30;19929;-63
2021/12/23 08:33:52;;;;;;;83.63;44.20;;;;;;;-3.84;76.31;100609.56;4768988;30;20276;-66
2021/12/23 08:36:55;;;;;;;;;;;;;;;-3.87;77.04;100608.69;4767023;30;20144;-63
2021/12/23 08:39:59;;;;;;;38.83;21.10;;;;;;;-3.82;76.89;100609.59;4768823;30;19967;-63
2021/12/23 08:43:02;;;;;;;31.77;19.20;;;;;;;-3.83;77.24;100611.31;4769441;30;20077;-63
2021/12/23 08:46:06;;;;;;;21.80;15.13;;;;;;;-3.84;77.89;100619.78;4768428;30;20423;-63
2021/12/23 08:49:09;;;;;;;26.80;15.82;;;;;;;-3.86;77.51;100620.59;4769032;30;20108;-65
2021/12/23 08:52:13;;;;;;;23.25;15.90;;;;;;;-3.77;77.85;100611.31;4768738;30;20636;-66
2021/12/23 08:55:17;;;;;;;24.52;15.20;;;;;;;-3.55;77.01;100608.91;4768639;30;20180;-64
2021/12/23 08:58:21;;;;;;;23.73;15.43;;;;;;;-3.67;77.05;100604.59;4757888;30;20086;-67
2021/12/23 09:01:24;;;;;;;;;;;;;;;-3.70;78.15;100606.25;4764320;30;20536;-66
2021/12/23 09:04:28;;;;;;;20.45;13.23;;;;;;;-3.54;78.13;100597.88;4764128;30;19952;-68
2021/12/23 09:07:31;;;;;;;24.92;16.73;;;;;;;-3.38;77.24;100603.91;4763992;30;20062;-67
2021/12/23 09:10:35;;;;;;;26.00;14.88;;;;;;;-3.42;77.38;100595.38;4764543;30;20097;-67
2021/12/23 09:13:40;;;;;;;25.25;15.82;;;;;;;-3.32;77.58;100586.91;4766131;30;20131;-67
2021/12/23 09:16:44;;;;;;;24.63;15.85;;;;;;;-3.22;77.34;100590.38;4763467;30;20055;-67
2021/12/23 09:19:47;;;;;;;31.05;18.58;;;;;;;-3.25;77.41;100590.38;4763895;30;20063;-66
2021/12/23 09:22:51;;;;;;;27.30;19.05;;;;;;;-3.33;77.30;100592.88;4763169;30;20645;-68
2021/12/23 09:25:55;;;;;;;30.90;18.88;;;;;;;-3.27;77.33;100597.16;4763815;30;20050;-69
2021/12/23 09:29:12;;;;;;;26.10;17.40;;;;;;;-3.28;77.21;100595.47;4763780;30;20544;-69
2021/12/23 09:35:39;;;;;;;19.85;14.88;;;;;;;-2.62;78.11;100598.25;4767800;30;20051;-68
2021/12/23 09:38:44;;;;;;;24.75;17.13;;;;;;;-2.45;77.16;100594.06;4762513;30;20059;-67
2021/12/23 09:41:49;;;;;;;22.48;15.73;;;;;;;-2.36;76.29;100606.03;4762795;30;20064;-67
2021/12/23 09:44:59;;;;;;;24.38;17.00;;;;;;;-2.25;75.62;100598.34;4766029;30;20750;-67
2021/12/23 09:48:04;;;;;;;24.48;15.98;;;;;;;-2.26;75.55;100597.50;4756787;30;20135;-67
2021/12/23 09:51:11;;;;;;;24.10;16.77;;;;;;;-2.19;75.69;100594.09;4750313;30;20057;-66
2021/12/23 09:54:17;;;;;;;24.38;16.30;;;;;;;-1.95;74.91;100592.38;4764130;30;20054;-67
2021/12/23 09:57:21;;;;;;;25.02;16.67;;;;;;;-1.92;74.81;100587.25;4768664;30;20426;-67
2021/12/23 10:00:28;;;;;;;28.80;20.27;;;;;;;-2.00;75.45;100583.84;4768679;30;20092;-67
2021/12/23 10:03:31;;;;;;;32.35;21.88;;;;;;;-2.00;75.77;100586.41;4750488;30;20094;-66
2021/12/23 10:06:35;;;;;;;29.88;21.70;;;;;;;-1.94;75.88;100573.59;4752198;30;20063;-66
2021/12/23 10:09:57;;;;;;;29.00;20.17;;;;;;;-1.81;75.02;100582.97;4757442;30;20486;-67
2021/12/23 10:37:31;;;;;;;34.10;22.85;;;;;;;-1.60;74.53;100517.13;4751963;30;20695;-66
2021/12/23 10:40:37;;;;;;;41.17;26.23;;;;;;;-1.79;75.31;100506.91;4732664;29;20094;-66
2021/12/23 10:43:52;;;;;;;36.42;25.35;;;;;;;-1.83;75.75;100501.81;4785441;29;20708;-66
2021/12/23 10:46:56;;;;;;;37.15;25.00;;;;;;;-1.72;76.10;100493.25;4786417;30;20054;-66
2021/12/23 10:50:18;;;;;;;;;;;;;;;-1.59;76.16;100473.56;4787218;30;20594;-65
2021/12/23 11:00:24;;;;;;;33.03;21.58;;;;;;;-1.70;78.11;100444.53;4766706;30;20121;-66
2021/12/23 11:03:44;;;;;;;35.35;22.58;;;;;;;-1.74;78.79;100446.25;4769185;30;20057;-66
2021/12/23 11:06:49;;;;;;;32.80;20.92;;;;;;;-1.78;78.96;100451.41;4769641;30;20094;-66
2021/12/23 11:41:02;;;;;;;37.22;22.55;;;;;;;-1.28;79.13;100410.13;4766400;30;20054;-66
2021/12/23 11:43:48;;;;;;;28.85;21.83;;;;;;;-1.29;80.21;100410.16;4747281;30;20125;-66
2021/12/23 11:46:55;;;;;;;30.73;21.80;;;;;;;-1.23;80.59;100408.41;4746662;30;20132;-68
2021/12/23 11:49:59;;;;;;;30.48;21.17;;;;;;;-1.20;79.79;100397.28;4760052;30;20085;-67
2021/12/23 11:53:03;;;;;;;30.63;23.08;;;;;;;-1.14;80.00;100397.25;4752959;30;20050;-68
2021/12/23 11:56:10;;;;;;;30.10;21.88;;;;;;;-1.07;79.61;100398.06;4764679;30;20089;-68
2021/12/23 11:59:15;;;;;;;27.73;21.15;;;;;;;-1.07;79.32;100380.94;4765684;30;20061;-65
2021/12/23 12:02:20;;;;;;;34.55;23.00;;;;;;;-1.10;79.46;100387.81;4766242;30;20064;-65
2021/12/23 12:05:23;;;;;;;33.08;23.90;;;;;;;-1.14;79.93;100378.44;4764464;30;20135;-65
2021/12/23 12:08:26;;;;;;;33.25;22.27;;;;;;;-1.06;79.70;100374.09;4764928;30;20074;-65
2021/12/23 12:11:30;;;;;;;35.38;23.77;;;;;;;-0.95;79.79;100374.88;4765695;30;20139;-65
2021/12/23 12:14:40;;;;;;;30.75;22.92;;;;;;;-1.06;79.04;100381.78;4765971;30;20058;-66
2021/12/23 12:17:43;;;;;;;32.17;23.92;;;;;;;-1.01;79.03;100374.91;4766107;30;20050;-67
2021/12/23 12:20:52;;;;;;;33.83;24.35;;;;;;;-0.96;79.05;100362.88;4759453;30;20062;-66
2021/12/23 12:24:13;;;;;;;36.20;23.15;;;;;;;-0.79;78.68;100370.47;4765517;30;20042;-67
2021/12/23 12:27:17;;;;;;;33.22;23.15;;;;;;;-0.67;78.53;100362.66;4774671;30;20045;-67
2021/12/23 12:30:34;;;;;;;32.25;23.63;;;;;;;-0.60;78.40;100359.16;4782947;30;20054;-67
2021/12/23 12:33:53;;;;;;;32.58;23.30;;;;;;;-0.53;78.30;100352.25;4783854;30;20050;-67
2021/12/23 12:36:58;;;;;;;32.08;23.92;;;;;;;-0.42;78.33;100345.28;4784264;30;20082;-67
2021/12/23 12:40:02;;;;;;;34.42;24.45;;;;;;;-0.34;78.60;100338.34;4785604;30;20049;-67
2021/12/23 12:43:34;;;;;;;38.17;25.80;;;;;;;-0.43;79.56;100333.31;4786347;30;20107;-67
2021/12/23 12:46:41;;;;;;;35.72;23.42;;;;;;;-0.53;80.02;100329.16;4785904;30;20069;-70
2021/12/23 12:49:49;;;;;;;32.47;23.67;;;;;;;-0.45;80.44;100327.31;4786395;30;20072;-67
2021/12/23 12:52:59;;;;;;;32.03;24.02;;;;;;;-0.41;80.55;100316.19;4763271;30;20083;-66
2021/12/23 12:56:07;;;;;;;34.45;24.10;;;;;;;-0.41;81.28;100317.91;4762096;30;20051;-67
2021/12/23 12:59:15;;;;;;;32.53;24.88;;;;;;;-0.33;81.27;100318.66;4764656;30;20628;-67
2021/12/23 13:02:31;;;;;;;31.38;23.63;;;;;;;-0.28;80.99;100307.47;4777873;30;20131;-67
2021/12/23 13:05:38;;;;;;;32.70;23.23;;;;;;;-0.23;81.16;100307.41;4781833;30;20054;-67
2021/12/23 13:08:47;;;;;;;33.53;24.55;;;;;;;-0.12;80.85;100304.72;4782944;30;20058;-67
2021/12/23 13:12:09;;;;;;;32.55;24.92;;;;;;;-0.04;80.56;100292.59;4768559;30;20113;-66
2021/12/23 13:15:35;;;;;;;26.05;20.08;;;;;;;-0.12;80.93;100291.88;4765343;30;20476;-66
2021/12/23 13:19:11;;;;;;;37.25;26.90;;;;;;;-0.08;81.17;100278.94;4764745;30;20167;-67
2021/12/23 13:22:17;;;;;;;41.33;26.80;;;;;;;-0.06;81.01;100271.22;4761777;30;20043;-67
2021/12/23 13:38:50;;;;;;;38.40;30.50;;;;;;;-0.20;81.97;100247.41;6179084;22;1302817;-63
2021/12/23 13:41:59;;;;;;;39.33;27.92;;;;;;;-0.24;82.83;100234.59;6193636;23;20073;-63
2021/12/23 13:45:03;;;;;;;40.40;28.23;;;;;;;-0.22;83.04;100241.44;6227064;23;20074;-63
2021/12/23 13:48:08;;;;;;;38.90;27.25;;;;;;;-0.15;82.20;100230.22;6246868;23;20444;-63
2021/12/23 13:51:13;;;;;;;35.50;26.13;;;;;;;-0.03;82.07;100212.06;6248837;23;20528;-63
2021/12/23 13:54:17;;;;;;;37.33;29.10;;;;;;;-0.24;82.27;100211.47;6245795;23;20027;-63
2021/12/23 13:57:23;;;;;;;37.97;27.73;;;;;;;-0.11;81.86;100212.16;6246785;23;20054;-62
2021/12/23 14:00:32;;;;;;;39.53;28.48;;;;;;;-0.13;81.84;100216.47;6246697;23;20093;-62
2021/12/23 14:03:36;;;;;;;39.42;29.90;;;;;;;-0.09;81.47;100214.72;6246482;23;20026;-63
2021/12/23 14:06:39;;;;;;;39.53;28.88;;;;;;;-0.19;81.78;100208.88;6245369;23;20054;-62
2021/12/23 14:09:57;;;;;;;40.53;29.92;;;;;;;-0.15;82.42;100207.09;6228256;23;20059;-62
2021/12/23 14:13:03;;;;;;;41.22;30.48;;;;;;;-0.09;81.60;100194.16;6249817;23;20089;-62
2021/12/23 14:16:17;;;;;;;38.70;29.48;;;;;;;0.03;81.41;100188.81;6230113;23;20078;-62
2021/12/23 14:19:40;;;;;;;47.40;30.42;;;;;;;0.11;81.08;100186.16;6249662;23;20034;-62
2021/12/23 14:26:09;;;;;;;42.35;31.80;;;;;;;0.06;81.51;100165.66;6251392;23;20030;-61
2021/12/23 14:29:19;;;;;;;46.90;32.55;;;;;;;0.03;82.55;100173.41;6250709;23;20405;-61
2021/12/23 14:32:22;;;;;;;47.38;32.53;;;;;;;-0.04;83.57;100175.22;6250142;23;20027;-61
2021/12/23 14:35:27;;;;;;;41.78;30.00;;;;;;;-0.08;83.78;100176.13;6249602;23;20035;-62
2021/12/23 14:38:39;;;;;;;39.30;29.95;;;;;;;-0.05;83.45;100180.41;6211159;23;20087;-62
2021/12/23 14:41:49;;;;;;;40.95;29.60;;;;;;;0.02;83.14;100187.13;6214371;23;20071;-62
2021/12/23 14:45:00;;;;;;;44.22;31.85;;;;;;;-0.03;82.90;100179.50;6214251;23;20071;-62
2021/12/23 14:48:18;;;;;;;43.83;31.40;;;;;;;-0.06;83.58;100189.00;6214387;23;20405;-62
2021/12/23 14:51:24;;;;;;;44.17;30.08;;;;;;;0.04;83.16;100190.56;6214354;23;20074;-62
2021/12/23 14:54:27;;;;;;;43.47;30.95;;;;;;;0.05;83.25;100181.13;6214915;23;20027;-62
2021/12/23 14:57:38;;;;;;;40.90;30.08;;;;;;;0.13;82.81;100185.28;6215288;23;20027;-62
2021/12/23 15:00:43;;;;;;;43.70;30.48;;;;;;;0.14;81.82;100181.81;6215299;23;20465;-62
2021/12/23 15:03:46;;;;;;;41.60;30.05;;;;;;;0.13;81.78;100187.84;6215440;23;20407;-62
2021/12/23 15:07:05;;;;;;;41.05;29.95;;;;;;;0.15;82.42;100182.66;6215167;23;20652;-62
2021/12/23 15:10:09;;;;;;;40.83;30.60;;;;;;;0.18;81.86;100190.34;6196353;23;20028;-62
2021/12/23 15:13:18;;;;;;;49.30;33.83;;;;;;;0.08;83.12;100196.50;6214970;23;20024;-62
2021/12/23 15:16:27;;;;;;;43.67;32.13;;;;;;;0.15;83.60;100191.22;6214328;23;20501;-62
2021/12/23 15:19:40;;;;;;;42.13;28.85;;;;;;;0.18;83.19;100198.03;6215112;23;20098;-62
2021/12/23 15:22:44;;;;;;;43.13;32.00;;;;;;;0.17;83.07;100192.06;6214818;23;20044;-62
2021/12/23 15:25:47;;;;;;;40.50;29.40;;;;;;;0.11;83.88;100187.00;6213869;23;20527;-62
2021/12/23 15:29:09;;;;;;;38.55;29.55;;;;;;;0.25;83.05;100183.38;6214708;23;20024;-61
2021/12/23 15:32:16;;;;;;;43.35;29.63;;;;;;;0.23;83.33;100163.69;6214835;23;20023;-61
2021/12/23 15:35:20;;;;;;;38.75;30.70;;;;;;;0.21;83.61;100167.16;6214522;23;20055;-61
2021/12/23 15:38:23;;;;;;;40.67;29.80;;;;;;;0.09;84.42;100164.75;6213355;23;20074;-61